createdAt,value
2023-11-19T00:02:43.454Z,2.60
2023-11-19T00:05:45.195Z,3.22
2023-11-19T00:08:46.505Z,2.77
2023-11-19T00:14:52.107Z,2.50
2023-11-19T00:17:53.513Z,2.83
2023-11-19T00:20:54.901Z,3.10
2023-11-19T00:23:56.302Z,1.97
2023-11-19T00:26:57.678Z,2.78
2023-11-19T00:29:59.057Z,2.53
2023-11-19T00:33:00.463Z,3.30
2023-11-19T00:36:01.810Z,3.03
2023-11-19T00:39:03.211Z,3.10
2023-11-19T00:42:04.532Z,2.67
2023-11-19T00:45:05.941Z,3.20
2023-11-19T00:48:07.356Z,2.85
2023-11-19T00:51:08.802Z,3.03
2023-11-19T00:54:10.242Z,2.60
2023-11-19T00:57:12.155Z,2.47
2023-11-19T01:00:13.630Z,3.00
2023-11-19T01:03:15.084Z,2.72
2023-11-19T01:06:16.543Z,2.60
2023-11-19T01:09:17.938Z,3.00
2023-11-19T01:12:19.261Z,2.60
2023-11-19T01:15:20.685Z,2.88
2023-11-19T01:18:22.019Z,3.28
2023-11-19T01:21:23.414Z,2.72
2023-11-19T01:24:24.737Z,2.83
2023-11-19T01:27:26.152Z,3.30
2023-11-19T01:30:27.588Z,3.13
2023-11-19T01:33:28.982Z,2.35
2023-11-19T01:36:30.288Z,3.17
2023-11-19T01:39:31.657Z,2.57
2023-11-19T01:42:33.025Z,2.70
2023-11-19T01:45:34.527Z,2.50
2023-11-19T01:48:35.965Z,3.05
2023-11-19T01:51:37.324Z,2.35
2023-11-19T01:54:38.709Z,3.00
2023-11-19T01:57:40.117Z,2.90
2023-11-19T02:00:41.518Z,2.63
2023-11-19T02:03:42.924Z,2.42
2023-11-19T02:06:44.353Z,2.55
2023-11-19T02:09:45.765Z,2.50
2023-11-19T02:12:47.214Z,2.33
2023-11-19T02:15:48.665Z,2.03
2023-11-19T02:18:50.031Z,2.83
2023-11-19T02:21:51.465Z,1.95
2023-11-19T02:24:52.987Z,2.70
2023-11-19T02:27:54.423Z,2.08
2023-11-19T02:30:55.822Z,2.25
2023-11-19T02:33:57.320Z,2.40
2023-11-19T02:36:58.750Z,2.53
2023-11-19T02:40:00.221Z,2.93
2023-11-19T02:43:01.653Z,2.15
2023-11-19T02:46:03.099Z,2.88
2023-11-19T02:49:05.669Z,2.63
2023-11-19T02:52:07.089Z,2.72
2023-11-19T02:55:08.562Z,2.53
2023-11-19T02:58:09.964Z,2.30
2023-11-19T03:01:11.430Z,2.40
2023-11-19T03:04:12.898Z,2.60
2023-11-19T03:07:14.399Z,3.08
2023-11-19T03:10:15.933Z,2.57
2023-11-19T03:13:17.395Z,2.25
2023-11-19T03:16:18.972Z,2.58
2023-11-19T03:22:24.896Z,2.50
2023-11-19T03:25:26.267Z,2.63
2023-11-19T03:28:27.698Z,2.40
2023-11-19T03:31:29.161Z,2.25
2023-11-19T03:34:30.525Z,2.40
2023-11-19T03:37:31.951Z,2.60
2023-11-19T03:40:33.309Z,2.43
2023-11-19T03:43:34.722Z,2.75
2023-11-19T03:46:36.271Z,2.78
2023-11-19T03:49:37.806Z,2.20
2023-11-19T03:55:43.493Z,2.63
2023-11-19T03:58:44.865Z,2.20
2023-11-19T04:01:46.316Z,3.20
2023-11-19T04:04:47.761Z,2.47
2023-11-19T04:07:49.188Z,2.25
2023-11-19T04:10:50.597Z,2.10
2023-11-19T04:13:51.970Z,2.45
2023-11-19T04:16:53.334Z,2.55
2023-11-19T04:19:54.806Z,2.50
2023-11-19T04:22:56.362Z,2.55
2023-11-19T04:26:10.718Z,2.60
2023-11-19T04:29:12.614Z,2.15
2023-11-19T04:32:14.005Z,2.58
2023-11-19T04:35:15.407Z,2.35
2023-11-19T04:38:16.809Z,2.55
2023-11-19T04:41:18.229Z,2.40
2023-11-19T04:44:19.637Z,2.42
2023-11-19T04:47:21.005Z,1.90
2023-11-19T04:50:22.405Z,2.90
2023-11-19T04:53:23.734Z,2.80
2023-11-19T04:56:25.126Z,2.20
2023-11-19T04:59:26.430Z,1.80
2023-11-19T05:02:27.812Z,2.72
2023-11-19T05:05:29.288Z,2.40
2023-11-19T05:08:30.705Z,2.92
2023-11-19T05:11:32.096Z,2.30
2023-11-19T05:14:33.494Z,2.58
2023-11-19T05:17:34.887Z,2.63
2023-11-19T05:20:36.338Z,2.17
2023-11-19T05:23:37.738Z,2.65
2023-11-19T05:26:39.076Z,2.53
2023-11-19T05:29:40.474Z,2.22
2023-11-19T05:32:41.793Z,2.50
2023-11-19T05:35:43.191Z,2.95
2023-11-19T05:38:44.577Z,2.88
2023-11-19T05:41:45.893Z,3.17
2023-11-19T05:44:47.291Z,2.88
2023-11-19T05:47:48.677Z,2.65
2023-11-19T05:50:50.084Z,3.22
2023-11-19T05:53:51.508Z,3.30
2023-11-19T05:56:52.923Z,2.53
2023-11-19T05:59:54.299Z,2.95
2023-11-19T06:02:55.767Z,3.05
2023-11-19T06:05:57.238Z,3.40
2023-11-19T06:08:58.641Z,3.15
2023-11-19T06:12:00.009Z,3.90
2023-11-19T06:15:01.320Z,3.42
2023-11-19T06:18:02.776Z,3.55
2023-11-19T06:21:04.160Z,3.25
2023-11-19T06:24:06.841Z,3.50
2023-11-19T06:27:09.419Z,4.07
2023-11-19T06:30:10.823Z,3.78
2023-11-19T06:33:12.318Z,3.35
2023-11-19T06:36:13.675Z,3.28
2023-11-19T06:39:15.087Z,3.42
2023-11-19T06:42:16.425Z,3.10
2023-11-19T06:45:17.824Z,3.95
2023-11-19T06:48:19.177Z,2.90
2023-11-19T06:51:20.569Z,4.07
2023-11-19T06:54:21.967Z,3.67
2023-11-19T06:57:23.290Z,3.17
2023-11-19T07:00:24.685Z,3.25
2023-11-19T07:03:26.156Z,3.15
2023-11-19T07:09:31.815Z,3.85
2023-11-19T07:12:33.227Z,3.23
2023-11-19T07:15:34.625Z,3.15
2023-11-19T07:18:36.051Z,3.92
2023-11-19T07:21:37.404Z,3.22
2023-11-19T07:24:38.826Z,2.80
2023-11-19T07:27:40.219Z,3.37
2023-11-19T07:30:41.566Z,4.38
2023-11-19T07:33:43.473Z,3.63
2023-11-19T07:36:44.848Z,3.70
2023-11-19T07:39:46.255Z,3.63
2023-11-19T07:42:47.603Z,3.73
2023-11-19T07:45:48.985Z,3.80
2023-11-19T07:48:50.375Z,3.67
2023-11-19T07:51:51.791Z,2.88
2023-11-19T07:54:53.116Z,3.88
2023-11-19T07:57:54.535Z,2.97
2023-11-19T08:00:55.842Z,3.22
2023-11-19T08:03:59.634Z,3.60
2023-11-19T08:07:01.759Z,3.47
2023-11-19T08:10:03.186Z,3.80
2023-11-19T08:13:04.574Z,3.73
2023-11-19T08:16:05.979Z,3.13
2023-11-19T08:19:07.313Z,3.35
2023-11-19T08:22:08.703Z,3.08
2023-11-19T08:25:10.104Z,3.75
2023-11-19T08:28:11.538Z,3.07
2023-11-19T08:31:12.957Z,3.47
2023-11-19T08:34:14.373Z,4.85
2023-11-19T08:37:15.779Z,3.95
2023-11-19T08:40:17.175Z,4.20
2023-11-19T08:43:18.580Z,3.70
2023-11-19T08:46:19.960Z,4.28
2023-11-19T08:49:21.392Z,4.63
2023-11-19T08:52:22.766Z,4.35
2023-11-19T08:55:24.218Z,4.93
2023-11-19T08:58:25.634Z,4.87
2023-11-19T09:01:27.036Z,4.63
2023-11-19T09:04:28.585Z,5.03
2023-11-19T09:07:29.984Z,5.03
2023-11-19T09:10:31.368Z,4.63
2023-11-19T09:13:32.768Z,4.13
2023-11-19T09:16:34.087Z,4.60
2023-11-19T09:19:35.499Z,5.03
2023-11-19T09:22:36.814Z,4.75
2023-11-19T09:28:42.688Z,4.17
2023-11-19T09:31:44.012Z,4.10
2023-11-19T09:34:45.409Z,4.63
2023-11-19T09:37:46.801Z,4.03
2023-11-19T09:40:48.122Z,3.70
2023-11-19T09:43:49.594Z,3.90
2023-11-19T09:46:50.917Z,3.08
2023-11-19T09:49:52.345Z,3.90
2023-11-19T09:52:53.689Z,4.22
2023-11-19T09:55:55.093Z,4.28
2023-11-19T09:58:56.434Z,4.13
2023-11-19T10:01:57.918Z,4.60
2023-11-19T10:04:59.283Z,3.90
2023-11-19T10:08:00.676Z,5.10
2023-11-19T10:11:02.056Z,4.60
2023-11-19T10:14:03.427Z,4.87
2023-11-19T10:17:04.846Z,4.80
2023-11-19T10:20:06.155Z,4.75
2023-11-19T10:23:07.532Z,4.20
2023-11-19T10:26:08.877Z,4.63
2023-11-19T10:29:10.288Z,3.80
2023-11-19T10:32:24.974Z,4.15
2023-11-19T10:35:28.579Z,3.38
2023-11-19T10:38:29.996Z,4.25
2023-11-19T10:41:31.386Z,4.13
2023-11-19T10:44:32.797Z,3.40
2023-11-19T10:50:38.464Z,3.92
2023-11-19T10:53:40.032Z,3.83
2023-11-19T10:56:41.644Z,3.22
2023-11-19T10:59:43.033Z,3.63
2023-11-19T11:02:44.536Z,3.78
2023-11-19T11:05:45.930Z,3.50
2023-11-19T11:08:47.315Z,2.92
2023-11-19T11:11:48.708Z,3.80
2023-11-19T11:14:50.050Z,4.40
2023-11-19T11:17:51.498Z,3.67
2023-11-19T11:20:52.856Z,3.35
2023-11-19T11:23:54.247Z,3.92
2023-11-19T11:26:55.597Z,3.58
2023-11-19T11:29:57.009Z,3.77
2023-11-19T11:32:58.347Z,3.92
2023-11-19T11:35:59.785Z,3.60
2023-11-19T11:39:01.126Z,3.60
2023-11-19T11:42:02.628Z,3.38
2023-11-19T11:45:05.498Z,3.23
2023-11-19T11:48:07.303Z,3.42
2023-11-19T11:51:08.784Z,3.75
2023-11-19T11:54:10.119Z,3.60
2023-11-19T11:57:13.920Z,3.25
2023-11-19T12:00:16.239Z,3.80
2023-11-19T12:03:17.675Z,3.63
2023-11-19T12:06:19.025Z,3.60
2023-11-19T12:09:20.775Z,3.00
2023-11-19T12:12:22.232Z,4.07
2023-11-19T12:15:23.537Z,3.73
2023-11-19T12:18:24.926Z,3.55
2023-11-19T12:21:26.901Z,3.40
2023-11-19T12:24:28.359Z,3.20
2023-11-19T12:27:29.828Z,3.13
2023-11-19T12:30:31.271Z,3.37
2023-11-19T12:33:33.062Z,3.35
2023-11-19T12:36:34.490Z,3.15
2023-11-19T12:39:35.936Z,2.95
2023-11-19T12:42:37.351Z,3.40
2023-11-19T12:45:38.781Z,3.50
2023-11-19T12:48:40.202Z,2.67
2023-11-19T12:51:41.634Z,3.50
2023-11-19T12:54:43.316Z,3.50
2023-11-19T12:57:44.777Z,3.28
2023-11-19T13:00:46.415Z,3.57
2023-11-19T13:03:47.836Z,3.25
2023-11-19T13:09:55.409Z,3.13
2023-11-19T13:12:56.978Z,3.47
2023-11-19T13:15:58.372Z,3.73
2023-11-19T13:19:00.265Z,3.80
2023-11-19T13:22:01.834Z,3.58
2023-11-19T13:25:03.536Z,3.00
2023-11-19T13:28:05.062Z,3.42
2023-11-19T13:31:06.612Z,3.47
2023-11-19T13:34:09.263Z,3.10
2023-11-19T13:37:10.712Z,3.60
2023-11-19T13:40:12.184Z,3.65
2023-11-19T13:43:13.617Z,3.67
2023-11-19T13:46:15.000Z,3.50
2023-11-19T13:49:16.833Z,3.75
2023-11-19T13:52:18.254Z,3.33
2023-11-19T13:55:20.128Z,3.72
2023-11-19T13:58:21.675Z,3.03
2023-11-19T14:01:25.420Z,2.97
2023-11-19T14:04:28.105Z,2.83
2023-11-19T14:07:29.861Z,2.63
2023-11-19T14:10:31.243Z,3.53
2023-11-19T14:13:32.682Z,4.15
2023-11-19T14:16:34.342Z,3.87
2023-11-19T14:19:36.010Z,3.83
2023-11-19T14:22:37.412Z,3.78
2023-11-19T14:25:39.850Z,3.50
2023-11-19T14:28:55.715Z,3.25
2023-11-19T14:31:57.689Z,3.53
2023-11-19T14:34:59.927Z,3.20
2023-11-19T14:38:01.356Z,3.67
2023-11-19T14:41:02.955Z,3.65
2023-11-19T14:44:04.393Z,4.10
2023-11-19T14:47:05.822Z,4.50
2023-11-19T14:50:07.602Z,4.40
2023-11-19T14:53:09.078Z,4.18
2023-11-19T14:56:10.871Z,3.67
2023-11-19T14:59:12.627Z,4.10
2023-11-19T15:02:14.560Z,4.63
2023-11-19T15:05:16.072Z,3.92
2023-11-19T15:08:17.420Z,4.32
2023-11-19T15:11:20.074Z,4.40
2023-11-19T15:14:22.072Z,4.90
2023-11-19T15:17:25.184Z,4.47
2023-11-19T15:20:27.323Z,4.80
2023-11-19T15:23:29.705Z,4.57
2023-11-19T15:26:31.324Z,5.50
2023-11-19T15:29:33.016Z,5.28
2023-11-19T15:32:34.470Z,5.30
2023-11-19T15:35:36.423Z,5.80
2023-11-19T15:38:53.110Z,5.95
2023-11-19T15:41:54.963Z,6.22
2023-11-19T15:44:56.376Z,6.00
2023-11-19T15:47:57.941Z,6.20
2023-11-19T15:50:59.495Z,7.07
2023-11-19T15:54:01.160Z,7.53
2023-11-19T15:57:02.633Z,7.80
2023-11-19T16:00:04.769Z,7.45
2023-11-19T16:03:06.330Z,7.80
2023-11-19T16:06:10.225Z,9.13
2023-11-19T16:09:12.195Z,9.13
2023-11-19T16:12:13.674Z,10.05
2023-11-19T16:15:36.303Z,9.63
2023-11-19T16:18:37.597Z,9.93
2023-11-19T16:21:39.175Z,11.23
2023-11-19T16:24:40.687Z,11.23
2023-11-19T16:27:42.514Z,11.98
2023-11-19T16:30:44.486Z,11.88
2023-11-19T16:33:45.968Z,11.60
2023-11-19T16:36:47.901Z,11.48
2023-11-19T16:39:49.363Z,12.13
2023-11-19T16:42:51.237Z,11.35
2023-11-19T16:45:53.008Z,10.98
2023-11-19T16:48:55.663Z,11.20
2023-11-19T16:51:58.926Z,11.77
2023-11-19T16:55:01.457Z,11.48
2023-11-19T16:58:02.802Z,11.48
2023-11-19T17:01:04.331Z,11.45
2023-11-19T17:04:06.305Z,12.47
2023-11-19T17:07:07.838Z,11.50
2023-11-19T17:10:09.327Z,11.43
2023-11-19T17:13:11.235Z,10.23
2023-11-19T17:16:12.929Z,10.27
2023-11-19T17:19:14.557Z,11.13
2023-11-19T17:22:17.009Z,10.38
2023-11-19T17:25:19.067Z,10.95
2023-11-19T17:28:21.076Z,10.57
2023-11-19T17:31:22.651Z,10.75
2023-11-19T17:34:24.049Z,11.53
2023-11-19T17:37:25.603Z,11.60
2023-11-19T17:40:27.447Z,10.18
2023-11-19T17:43:29.502Z,10.88
2023-11-19T17:46:31.010Z,10.43
2023-11-19T17:49:33.034Z,9.63
2023-11-19T17:52:36.540Z,10.48
2023-11-19T17:55:38.108Z,9.55
2023-11-19T17:58:40.044Z,9.32
2023-11-19T18:01:41.626Z,8.52
2023-11-19T18:04:43.063Z,8.80
2023-11-19T18:07:44.972Z,9.45
2023-11-19T18:10:46.945Z,8.48
2023-11-19T18:13:48.495Z,9.60
2023-11-19T18:16:50.470Z,9.45
2023-11-19T18:19:52.492Z,9.33
2023-11-19T18:22:54.348Z,8.48
2023-11-19T18:25:56.016Z,9.15
2023-11-19T18:28:57.463Z,9.80
2023-11-19T18:31:58.855Z,11.32
2023-11-19T18:35:00.638Z,12.10
2023-11-19T18:38:02.136Z,13.32
2023-11-19T18:41:03.931Z,13.07
2023-11-19T18:44:05.493Z,14.20
2023-11-19T18:47:07.346Z,14.18
2023-11-19T18:50:08.910Z,15.30
2023-11-19T18:53:10.941Z,16.75
2023-11-19T18:56:12.445Z,14.60
2023-11-19T18:59:14.297Z,12.80
2023-11-19T19:02:16.368Z,14.90
2023-11-19T19:05:18.523Z,14.90
2023-11-19T19:08:20.056Z,14.40
2023-11-19T19:11:23.039Z,14.63
2023-11-19T19:14:25.009Z,14.85
2023-11-19T19:17:26.527Z,14.00
2023-11-19T19:20:28.269Z,14.00
2023-11-19T19:23:29.732Z,15.40
2023-11-19T19:26:31.308Z,14.88
2023-11-19T19:29:32.708Z,14.15
2023-11-19T19:32:34.763Z,15.00
2023-11-19T19:35:37.004Z,12.97
2023-11-19T19:38:39.081Z,13.70
2023-11-19T19:41:41.522Z,14.15
2023-11-19T19:44:43.689Z,12.95
2023-11-19T19:47:45.577Z,14.13
2023-11-19T19:50:47.343Z,12.73
2023-11-19T19:53:49.045Z,12.48
2023-11-19T19:56:50.439Z,12.43
2023-11-19T19:59:52.158Z,11.95
2023-11-19T20:02:53.850Z,11.68
2023-11-19T20:05:55.749Z,11.93
2023-11-19T20:08:57.785Z,12.57
2023-11-19T20:11:59.852Z,11.85
2023-11-19T20:15:01.427Z,11.60
2023-11-19T20:18:02.944Z,11.90
2023-11-19T20:21:04.886Z,11.63
2023-11-19T20:24:06.833Z,12.48
2023-11-19T20:27:08.896Z,10.90
2023-11-19T20:30:10.779Z,11.15
2023-11-19T20:33:12.195Z,12.23
2023-11-19T20:36:14.118Z,12.33
2023-11-19T20:39:15.613Z,11.23
2023-11-19T20:42:17.568Z,11.93
2023-11-19T20:45:19.504Z,13.05
2023-11-19T20:48:21.331Z,12.90
2023-11-19T20:51:28.176Z,13.23
2023-11-19T20:57:38.125Z,10.95
2023-11-19T21:00:39.782Z,12.35
2023-11-19T21:03:41.382Z,11.30
2023-11-19T21:09:47.525Z,10.88
2023-11-19T21:12:49.445Z,11.77
2023-11-19T21:15:56.836Z,11.98
2023-11-19T21:19:00.698Z,11.20
2023-11-19T21:22:02.200Z,11.30
2023-11-19T21:25:03.596Z,12.02
2023-11-19T21:28:05.024Z,12.68
2023-11-19T21:31:06.744Z,11.45
2023-11-19T21:34:08.140Z,11.32
2023-11-19T21:37:09.540Z,10.17
2023-11-19T21:40:10.968Z,10.45
2023-11-19T21:43:12.477Z,10.80
2023-11-19T21:46:13.916Z,10.77
2023-11-19T21:49:15.272Z,9.68
2023-11-19T21:52:16.654Z,10.17
2023-11-19T21:55:17.981Z,9.73
2023-11-19T21:58:19.407Z,9.30
2023-11-19T22:01:20.846Z,8.90
2023-11-19T22:04:22.370Z,9.63
2023-11-19T22:07:23.859Z,8.77
2023-11-19T22:10:25.328Z,9.95
2023-11-19T22:13:26.645Z,10.20
2023-11-19T22:16:29.260Z,8.77
2023-11-19T22:19:30.714Z,9.88
2023-11-19T22:22:32.087Z,10.20
2023-11-19T22:25:33.470Z,8.98
2023-11-19T22:28:34.790Z,8.73
2023-11-19T22:31:36.232Z,9.15
2023-11-19T22:34:37.636Z,8.63
2023-11-19T22:37:39.023Z,8.23
2023-11-19T22:40:40.376Z,8.23
2023-11-19T22:43:41.797Z,8.50
2023-11-19T22:46:43.255Z,8.27
2023-11-19T22:49:44.614Z,7.97
2023-11-19T22:52:45.992Z,8.27
2023-11-19T22:55:47.370Z,8.27
2023-11-19T22:58:48.747Z,8.70
2023-11-19T23:01:50.147Z,7.95
2023-11-19T23:04:51.498Z,8.55
2023-11-19T23:07:52.895Z,8.27
2023-11-19T23:10:54.216Z,8.48
2023-11-19T23:13:55.604Z,7.75
2023-11-19T23:16:56.935Z,8.18
2023-11-19T23:20:07.736Z,8.27
2023-11-19T23:23:10.070Z,7.70
2023-11-19T23:26:11.484Z,7.82
2023-11-19T23:29:15.894Z,7.70
2023-11-19T23:32:17.951Z,7.70
2023-11-19T23:35:19.318Z,7.68
2023-11-19T23:38:20.697Z,8.40
2023-11-19T23:41:22.032Z,7.20
2023-11-19T23:44:23.436Z,7.72
2023-11-19T23:47:24.759Z,8.52
2023-11-19T23:50:26.161Z,7.53
2023-11-19T23:53:27.548Z,7.97
2023-11-19T23:56:28.945Z,7.82
2023-11-19T23:59:30.353Z,6.88
